createdAt,value
2018-11-13T00:01:57.890Z,4.97
2018-11-13T00:04:26.035Z,5.33
2018-11-13T00:06:54.320Z,5.57
2018-11-13T00:09:22.530Z,5.60
2018-11-13T00:11:50.971Z,6.07
2018-11-13T00:14:19.171Z,7.83
2018-11-13T00:16:47.378Z,7.97
2018-11-13T00:19:22.410Z,6.20
2018-11-13T00:21:53.363Z,6.10
2018-11-13T00:24:21.807Z,5.47
2018-11-13T00:26:50.911Z,4.93
2018-11-13T00:30:24.209Z,5.77
2018-11-13T00:32:52.832Z,5.57
2018-11-13T00:35:21.609Z,5.93
2018-11-13T00:37:50.719Z,6.30
2018-11-13T00:40:19.349Z,6.00
2018-11-13T00:42:47.989Z,6.20
2018-11-13T00:45:17.241Z,6.87
2018-11-13T00:47:45.392Z,6.17
2018-11-13T00:50:17.040Z,6.37
2018-11-13T00:52:48.902Z,5.50
2018-11-13T00:55:17.045Z,5.67
2018-11-13T00:57:45.788Z,5.00
2018-11-13T01:00:18.240Z,5.60
2018-11-13T01:02:46.661Z,5.87
2018-11-13T01:05:16.056Z,5.37
2018-11-13T01:07:45.707Z,5.47
2018-11-13T01:10:16.418Z,5.10
2018-11-13T01:12:48.735Z,5.10
2018-11-13T01:15:18.152Z,5.40
2018-11-13T01:17:46.985Z,5.40
2018-11-13T01:20:15.956Z,5.00
2018-11-13T01:22:44.189Z,5.13
2018-11-13T01:25:13.430Z,5.03
2018-11-13T01:27:42.138Z,4.00
2018-11-13T01:30:11.250Z,4.50
2018-11-13T01:32:40.730Z,4.57
2018-11-13T01:35:15.177Z,4.17
2018-11-13T01:37:44.098Z,4.60
2018-11-13T01:40:14.134Z,4.10
2018-11-13T01:42:44.327Z,4.30
2018-11-13T01:45:13.725Z,4.33
2018-11-13T01:47:41.994Z,5.40
2018-11-13T01:50:10.825Z,4.80
2018-11-13T01:52:38.993Z,4.57
2018-11-13T01:55:08.898Z,6.07
2018-11-13T01:57:44.150Z,5.33
2018-11-13T02:00:15.467Z,5.17
2018-11-13T02:02:44.493Z,4.93
2018-11-13T02:05:12.810Z,5.23
2018-11-13T02:07:41.012Z,5.20
2018-11-13T02:10:09.277Z,5.20
2018-11-13T02:12:37.490Z,5.57
2018-11-13T02:15:06.626Z,6.13
2018-11-13T02:17:35.195Z,6.03
2018-11-13T02:20:04.328Z,6.07
2018-11-13T02:22:32.645Z,7.20
2018-11-13T02:25:01.108Z,7.47
2018-11-13T02:27:29.790Z,7.10
2018-11-13T02:29:57.974Z,7.30
2018-11-13T02:32:26.162Z,7.83
2018-11-13T02:34:54.366Z,8.30
2018-11-13T02:37:23.078Z,9.73
2018-11-13T02:39:51.306Z,9.30
2018-11-13T02:42:19.495Z,11.33
2018-11-13T02:44:47.666Z,10.70
2018-11-13T02:47:15.889Z,9.03
2018-11-13T02:49:44.200Z,9.70
2018-11-13T02:52:13.441Z,8.43
2018-11-13T02:54:41.630Z,8.63
2018-11-13T02:57:09.839Z,8.27
2018-11-13T02:59:38.040Z,6.93
2018-11-13T03:02:06.853Z,7.63
2018-11-13T03:04:35.067Z,8.27
2018-11-13T03:07:03.292Z,4.67
2018-11-13T03:09:31.917Z,4.20
2018-11-13T03:12:00.149Z,3.80
2018-11-13T03:14:28.358Z,2.67
2018-11-13T03:16:56.540Z,2.50
2018-11-13T03:19:24.807Z,2.50
2018-11-13T03:21:53.275Z,2.97
2018-11-13T03:24:21.424Z,2.80
2018-11-13T03:26:49.595Z,3.70
2018-11-13T03:29:17.786Z,3.70
2018-11-13T03:31:46.063Z,4.33
2018-11-13T03:34:14.952Z,3.60
2018-11-13T03:36:43.125Z,3.60
2018-11-13T03:39:11.887Z,4.90
2018-11-13T03:41:40.359Z,5.10
2018-11-13T03:44:09.928Z,4.80
2018-11-13T03:46:38.154Z,5.30
2018-11-13T03:49:07.130Z,4.50
2018-11-13T03:51:35.312Z,3.50
2018-11-13T03:54:03.506Z,2.87
2018-11-13T03:56:31.823Z,2.27
2018-11-13T03:58:59.999Z,1.90
2018-11-13T04:01:28.191Z,2.00
2018-11-13T04:03:56.714Z,2.20
2018-11-13T04:06:24.899Z,1.90
2018-11-13T04:08:53.090Z,2.30
2018-11-13T04:11:21.893Z,2.73
2018-11-13T04:13:50.477Z,2.80
2018-11-13T04:16:18.902Z,2.80
2018-11-13T04:18:47.075Z,3.10
2018-11-13T04:21:15.238Z,2.87
2018-11-13T04:23:43.416Z,2.90
2018-11-13T04:26:11.619Z,4.10
2018-11-13T04:28:39.807Z,3.70
2018-11-13T04:31:08.027Z,3.97
2018-11-13T04:33:36.241Z,3.77
2018-11-13T04:36:07.962Z,3.80
2018-11-13T04:38:36.149Z,3.77
2018-11-13T04:41:10.983Z,3.90
2018-11-13T04:43:44.120Z,3.83
2018-11-13T04:46:12.350Z,4.00
2018-11-13T04:48:40.565Z,3.77
2018-11-13T04:51:08.766Z,3.87
2018-11-13T04:53:37.775Z,3.63
2018-11-13T04:56:06.293Z,3.20
2018-11-13T04:58:35.113Z,4.20
2018-11-13T05:01:03.789Z,4.10
2018-11-13T05:03:31.935Z,3.87
2018-11-13T05:06:00.265Z,3.90
2018-11-13T05:08:28.438Z,3.63
2018-11-13T05:10:56.648Z,3.60
2018-11-13T05:13:25.251Z,3.77
2018-11-13T05:15:53.442Z,3.53
2018-11-13T05:18:21.618Z,3.90
2018-11-13T05:20:53.278Z,4.10
2018-11-13T05:23:21.441Z,4.17
2018-11-13T05:25:49.669Z,4.53
2018-11-13T05:28:17.865Z,4.90
2018-11-13T05:30:46.594Z,4.63
2018-11-13T05:33:15.155Z,4.50
2018-11-13T05:35:43.362Z,3.90
2018-11-13T05:38:11.575Z,3.97
2018-11-13T05:40:40.478Z,4.17
2018-11-13T05:43:09.298Z,4.00
2018-11-13T05:45:37.535Z,3.77
2018-11-13T05:48:05.767Z,3.80
2018-11-13T05:50:33.944Z,3.67
2018-11-13T05:53:02.154Z,4.10
2018-11-13T05:55:30.730Z,4.57
2018-11-13T05:58:00.599Z,4.83
2018-11-13T06:00:30.635Z,4.90
2018-11-13T06:02:59.071Z,4.87
2018-11-13T06:05:27.197Z,4.80
2018-11-13T06:07:55.461Z,4.73
2018-11-13T06:10:24.003Z,4.20
2018-11-13T06:12:52.263Z,3.90
2018-11-13T06:15:20.758Z,3.83
2018-11-13T06:17:48.912Z,3.87
2018-11-13T06:20:17.289Z,3.87
2018-11-13T06:22:45.572Z,3.73
2018-11-13T06:25:14.955Z,4.13
2018-11-13T06:27:44.141Z,3.83
2018-11-13T06:30:15.521Z,3.77
2018-11-13T06:32:44.106Z,3.80
2018-11-13T06:35:12.306Z,2.87
2018-11-13T06:37:40.834Z,3.43
2018-11-13T06:40:09.446Z,3.30
2018-11-13T06:42:37.926Z,3.80
2018-11-13T06:45:18.425Z,3.40
2018-11-13T06:47:47.258Z,3.10
2018-11-13T06:50:15.456Z,2.87
2018-11-13T06:52:44.467Z,2.90
2018-11-13T06:55:33.037Z,3.00
2018-11-13T06:58:01.580Z,2.77
2018-11-13T07:00:29.799Z,2.70
2018-11-13T07:02:57.966Z,2.80
2018-11-13T07:05:26.162Z,2.87
2018-11-13T07:07:55.054Z,2.47
2018-11-13T07:10:24.895Z,3.27
2018-11-13T07:12:54.174Z,3.03
2018-11-13T07:15:28.411Z,3.20
2018-11-13T07:17:58.846Z,3.20
2018-11-13T07:20:28.225Z,3.40
2018-11-13T07:23:03.062Z,3.43
2018-11-13T07:25:32.046Z,3.50
2018-11-13T07:28:00.443Z,3.53
2018-11-13T07:30:28.810Z,3.80
2018-11-13T07:32:57.022Z,3.90
2018-11-13T07:35:25.439Z,4.00
2018-11-13T07:37:55.022Z,3.63
2018-11-13T07:40:23.225Z,3.87
2018-11-13T07:42:51.568Z,4.10
2018-11-13T07:45:20.295Z,3.50
2018-11-13T07:47:48.814Z,3.53
2018-11-13T07:50:18.410Z,3.00
2018-11-13T07:52:46.673Z,3.67
2018-11-13T07:55:16.004Z,4.00
2018-11-13T07:57:46.094Z,5.63
2018-11-13T08:00:19.355Z,5.43
2018-11-13T08:02:48.873Z,4.07
2018-11-13T08:05:17.199Z,2.70
2018-11-13T08:07:45.898Z,3.17
2018-11-13T08:10:14.221Z,2.70
2018-11-13T08:12:42.455Z,3.20
2018-11-13T08:15:12.220Z,2.17
2018-11-13T08:17:47.063Z,2.00
2018-11-13T08:20:16.146Z,2.00
2018-11-13T08:22:44.494Z,1.97
2018-11-13T08:25:13.512Z,2.33
2018-11-13T08:27:42.066Z,1.80
2018-11-13T08:30:14.043Z,1.30
2018-11-13T08:32:42.603Z,1.50
2018-11-13T08:35:10.891Z,1.20
2018-11-13T08:37:39.246Z,1.83
2018-11-13T08:40:09.322Z,1.23
2018-11-13T08:42:37.544Z,1.10
2018-11-13T08:45:06.647Z,1.10
2018-11-13T08:47:34.814Z,1.00
2018-11-13T08:50:03.050Z,1.20
2018-11-13T08:52:31.219Z,1.00
2018-11-13T08:54:59.389Z,0.80
2018-11-13T08:57:27.548Z,0.83
2018-11-13T08:59:55.751Z,0.90
2018-11-13T09:02:23.955Z,1.60
2018-11-13T09:04:52.415Z,1.00
2018-11-13T09:07:20.616Z,0.70
2018-11-13T09:09:48.845Z,0.70
2018-11-13T09:12:17.395Z,0.80
2018-11-13T09:14:45.559Z,0.77
2018-11-13T09:17:13.754Z,0.97
2018-11-13T09:19:42.082Z,0.77
2018-11-13T09:22:10.274Z,0.50
2018-11-13T09:24:38.498Z,0.77
2018-11-13T09:27:06.743Z,0.90
2018-11-13T09:29:35.148Z,0.60
2018-11-13T09:32:03.303Z,0.53
2018-11-13T09:34:31.522Z,0.60
2018-11-13T09:37:00.054Z,0.60
2018-11-13T09:39:28.209Z,0.60
2018-11-13T09:41:56.477Z,0.70
2018-11-13T09:44:24.690Z,0.67
2018-11-13T09:46:52.974Z,0.60
2018-11-13T09:49:21.459Z,0.60
2018-11-13T09:51:49.702Z,0.70
2018-11-13T09:54:17.939Z,0.50
2018-11-13T09:56:46.366Z,0.50
2018-11-13T09:59:15.003Z,0.40
2018-11-13T10:01:44.488Z,0.50
2018-11-13T10:04:12.776Z,0.50
2018-11-13T10:06:40.509Z,0.70
2018-11-13T10:09:10.767Z,0.40
2018-11-13T10:11:40.291Z,0.37
2018-11-13T10:14:09.670Z,0.50
2018-11-13T10:16:38.646Z,0.40
2018-11-13T10:19:08.213Z,0.30
2018-11-13T10:21:37.286Z,0.33
2018-11-13T10:24:06.206Z,0.50
2018-11-13T10:26:34.577Z,0.30
2018-11-13T10:29:02.620Z,0.40
2018-11-13T10:31:30.882Z,0.50
2018-11-13T10:33:59.138Z,0.30
2018-11-13T10:36:27.578Z,0.33
2018-11-13T10:38:57.601Z,0.30
2018-11-13T10:41:26.001Z,0.50
2018-11-13T10:43:54.222Z,0.40
2018-11-13T10:46:22.418Z,0.47
2018-11-13T10:48:50.941Z,0.40
2018-11-13T10:51:19.463Z,0.30
2018-11-13T10:53:47.635Z,0.50
2018-11-13T10:56:15.995Z,0.60
2018-11-13T10:58:44.051Z,0.40
2018-11-13T11:01:17.643Z,0.47
2018-11-13T11:03:51.378Z,0.40
2018-11-13T11:06:19.597Z,0.37
2018-11-13T11:08:47.766Z,0.40
2018-11-13T11:11:16.004Z,0.50
2018-11-13T11:13:44.272Z,0.50
2018-11-13T11:16:12.370Z,0.43
2018-11-13T11:18:40.572Z,0.40
2018-11-13T11:21:08.662Z,0.50
2018-11-13T11:23:37.058Z,0.40
2018-11-13T11:26:05.622Z,0.40
2018-11-13T11:28:33.765Z,0.40
2018-11-13T11:31:02.069Z,0.43
2018-11-13T11:33:30.266Z,0.40
2018-11-13T11:35:59.649Z,0.60
2018-11-13T11:38:27.800Z,0.50
2018-11-13T11:40:56.001Z,0.50
2018-11-13T11:43:24.174Z,0.47
2018-11-13T11:45:52.362Z,0.40
2018-11-13T11:48:20.567Z,0.60
2018-11-13T11:50:48.778Z,0.60
2018-11-13T11:53:17.346Z,0.50
2018-11-13T11:55:45.528Z,0.83
2018-11-13T11:58:13.679Z,0.60
2018-11-13T12:00:41.930Z,0.60
2018-11-13T12:03:10.082Z,0.70
2018-11-13T12:05:38.214Z,0.60
2018-11-13T12:08:06.412Z,0.60
2018-11-13T12:10:39.455Z,0.70
2018-11-13T12:13:07.875Z,0.70
2018-11-13T12:15:36.289Z,0.77
2018-11-13T12:18:04.850Z,0.67
2018-11-13T12:20:33.014Z,0.77
2018-11-13T12:23:01.171Z,0.80
2018-11-13T12:25:29.459Z,0.80
2018-11-13T12:27:57.682Z,0.90
2018-11-13T12:30:25.814Z,1.10
2018-11-13T12:32:54.047Z,0.60
2018-11-13T12:35:22.699Z,0.80
2018-11-13T12:37:50.887Z,0.57
2018-11-13T12:40:22.110Z,0.65
2018-11-13T12:42:50.690Z,0.60
2018-11-13T12:45:19.410Z,0.60
2018-11-13T12:47:47.623Z,0.50
2018-11-13T12:50:16.978Z,0.62
2018-11-13T12:52:45.150Z,0.62
2018-11-13T12:55:17.934Z,0.80
2018-11-13T12:57:46.947Z,0.72
2018-11-13T13:00:17.650Z,0.70
2018-11-13T13:02:45.906Z,0.82
2018-11-13T13:05:14.125Z,0.68
2018-11-13T13:07:42.308Z,0.80
2018-11-13T13:10:12.282Z,0.60
2018-11-13T13:12:40.521Z,0.70
2018-11-13T13:15:10.731Z,0.65
2018-11-13T13:17:39.207Z,0.65
2018-11-13T13:20:09.578Z,0.68
2018-11-13T13:22:38.343Z,0.80
2018-11-13T13:25:08.306Z,0.80
2018-11-13T13:27:36.781Z,0.80
2018-11-13T13:30:05.520Z,0.97
2018-11-13T13:32:33.715Z,0.90
2018-11-13T13:35:01.918Z,1.20
2018-11-13T13:37:30.110Z,0.93
2018-11-13T13:39:58.608Z,0.90
2018-11-13T13:42:26.774Z,0.83
2018-11-13T13:44:54.949Z,0.90
2018-11-13T13:47:23.085Z,1.27
2018-11-13T13:49:51.239Z,1.20
2018-11-13T13:52:19.390Z,0.80
2018-11-13T13:54:47.922Z,1.30
2018-11-13T13:57:16.762Z,1.00
2018-11-13T13:59:45.012Z,1.43
2018-11-13T14:02:13.111Z,1.17
2018-11-13T14:04:41.306Z,1.30
2018-11-13T14:07:09.570Z,0.90
2018-11-13T14:09:37.754Z,1.10
2018-11-13T14:12:05.907Z,1.30
2018-11-13T14:14:34.193Z,1.10
2018-11-13T14:17:02.390Z,1.00
2018-11-13T14:19:30.592Z,0.90
2018-11-13T14:21:58.754Z,0.93
2018-11-13T14:24:26.968Z,1.00
2018-11-13T14:26:55.552Z,1.03
2018-11-13T14:29:23.718Z,1.10
2018-11-13T14:31:51.918Z,1.00
2018-11-13T14:34:20.342Z,0.83
2018-11-13T14:36:48.728Z,0.87
2018-11-13T14:39:17.022Z,1.10
2018-11-13T14:41:45.303Z,0.90
2018-11-13T14:44:13.575Z,1.10
2018-11-13T14:46:41.980Z,1.40
2018-11-13T14:49:10.412Z,1.30
2018-11-13T14:51:38.612Z,0.73
2018-11-13T14:56:41.837Z,1.23
2018-11-13T14:59:10.078Z,0.87
2018-11-13T15:01:38.411Z,1.17
2018-11-13T15:04:06.657Z,0.97
2018-11-13T15:06:34.942Z,0.90
2018-11-13T15:09:04.049Z,0.97
2018-11-13T15:11:32.224Z,1.20
2018-11-13T15:14:01.017Z,1.10
2018-11-13T15:16:29.236Z,0.90
2018-11-13T15:18:57.678Z,1.27
2018-11-13T15:21:25.899Z,0.93
2018-11-13T15:23:54.391Z,1.10
2018-11-13T15:26:24.341Z,1.00
2018-11-13T15:28:52.546Z,0.87
2018-11-13T15:31:20.770Z,0.90
2018-11-13T15:33:48.932Z,1.00
2018-11-13T15:36:17.345Z,0.90
2018-11-13T15:38:45.666Z,1.10
2018-11-13T15:41:13.852Z,0.97
2018-11-13T15:43:42.318Z,1.10
2018-11-13T15:46:10.533Z,0.90
2018-11-13T15:48:38.632Z,1.90
2018-11-13T15:51:09.060Z,0.80
2018-11-13T15:53:35.387Z,0.97
2018-11-13T15:56:03.563Z,1.27
2018-11-13T15:58:31.920Z,1.30
2018-11-13T23:28:39.146Z,11.20
2018-11-13T23:31:07.366Z,11.93
2018-11-13T23:33:35.518Z,11.20
2018-11-13T23:36:05.041Z,10.37
2018-11-13T23:38:33.258Z,9.67
2018-11-13T23:41:01.498Z,9.67
2018-11-13T23:43:29.686Z,8.73
2018-11-13T23:45:57.906Z,8.83
2018-11-13T23:48:26.126Z,8.73
2018-11-13T23:50:55.161Z,8.40
2018-11-13T23:53:23.338Z,8.00
2018-11-13T23:55:51.514Z,9.20
2018-11-13T23:58:19.686Z,9.37
